createdAt,value
2019-01-24T00:01:18.418Z,31.70
2019-01-24T00:03:48.390Z,31.60
2019-01-24T00:06:18.375Z,31.50
2019-01-24T00:08:48.347Z,31.60
2019-01-24T00:11:19.300Z,31.50
2019-01-24T00:13:49.252Z,32.80
2019-01-24T00:16:19.216Z,31.40
2019-01-24T00:18:49.279Z,31.30
2019-01-24T00:21:19.234Z,31.30
2019-01-24T00:23:49.217Z,31.20
2019-01-24T00:26:19.167Z,31.10
2019-01-24T00:28:49.128Z,31.00
2019-01-24T00:31:19.174Z,31.00
2019-01-24T00:33:49.163Z,31.00
2019-01-24T00:36:19.205Z,31.50
2019-01-24T00:38:49.183Z,31.30
2019-01-24T00:41:19.144Z,31.10
2019-01-24T00:43:49.103Z,31.90
2019-01-24T00:46:19.186Z,31.00
2019-01-24T00:48:49.142Z,31.10
2019-01-24T00:51:19.125Z,31.00
2019-01-24T00:53:49.093Z,30.90
2019-01-24T00:56:19.062Z,30.80
2019-01-24T00:58:49.094Z,30.80
2019-01-24T01:01:19.086Z,30.80
2019-01-24T01:03:49.030Z,31.00
2019-01-24T01:06:19.030Z,30.80
2019-01-24T01:08:48.974Z,31.50
2019-01-24T01:11:18.937Z,30.80
2019-01-24T01:13:48.945Z,30.60
2019-01-24T01:16:18.929Z,30.70
2019-01-24T01:18:48.931Z,30.70
2019-01-24T01:21:18.879Z,30.70
2019-01-24T01:23:48.830Z,30.70
2019-01-24T01:26:18.790Z,30.70
2019-01-24T01:28:48.754Z,30.50
2019-01-24T01:31:18.706Z,30.50
2019-01-24T01:33:48.662Z,31.20
2019-01-24T01:36:18.641Z,30.50
2019-01-24T01:38:48.599Z,30.50
2019-01-24T01:41:18.593Z,30.30
2019-01-24T01:43:48.562Z,30.40
2019-01-24T01:46:18.524Z,30.50
2019-01-24T01:48:48.473Z,30.40
2019-01-24T01:51:18.455Z,30.30
2019-01-24T01:53:48.417Z,30.40
2019-01-24T01:56:18.365Z,30.30
2019-01-24T01:58:48.331Z,30.40
2019-01-24T02:01:18.284Z,30.20
2019-01-24T02:03:48.270Z,30.10
2019-01-24T02:06:18.219Z,30.30
2019-01-24T02:08:48.197Z,30.30
2019-01-24T02:11:18.206Z,30.20
2019-01-24T02:13:49.879Z,30.20
2019-01-24T02:16:19.839Z,30.40
2019-01-24T02:18:49.786Z,30.10
2019-01-24T02:21:19.773Z,30.00
2019-01-24T02:23:49.725Z,30.00
2019-01-24T02:26:19.686Z,30.10
2019-01-24T02:28:49.650Z,30.00
2019-01-24T02:31:19.637Z,30.00
2019-01-24T02:33:49.610Z,30.00
2019-01-24T02:36:19.568Z,30.00
2019-01-24T02:38:49.512Z,30.00
2019-01-24T02:41:19.478Z,30.00
2019-01-24T02:43:49.462Z,30.00
2019-01-24T02:46:19.413Z,30.00
2019-01-24T02:48:49.369Z,29.90
2019-01-24T02:51:19.325Z,30.00
2019-01-24T02:53:49.283Z,29.90
2019-01-24T02:56:19.252Z,29.80
2019-01-24T02:58:49.271Z,30.00
2019-01-24T03:01:19.267Z,30.50
2019-01-24T03:03:49.222Z,30.00
2019-01-24T03:06:19.190Z,29.90
2019-01-24T03:08:49.225Z,29.90
2019-01-24T03:11:19.174Z,29.90
2019-01-24T03:13:49.139Z,29.90
2019-01-24T03:16:19.105Z,29.80
2019-01-24T03:18:49.103Z,29.80
2019-01-24T03:21:19.050Z,29.80
2019-01-24T03:23:49.103Z,29.70
2019-01-24T03:26:19.050Z,29.80
2019-01-24T03:28:49.014Z,29.80
2019-01-24T03:31:19.009Z,29.80
2019-01-24T03:33:49.029Z,29.80
2019-01-24T03:36:18.976Z,29.70
2019-01-24T03:38:48.927Z,29.70
2019-01-24T03:41:18.892Z,29.70
2019-01-24T03:43:48.951Z,29.60
2019-01-24T03:46:19.005Z,29.70
2019-01-24T03:48:48.970Z,29.70
2019-01-24T03:51:18.997Z,29.70
2019-01-24T03:53:48.965Z,29.60
2019-01-24T03:56:18.968Z,29.60
2019-01-24T03:58:48.982Z,29.70
2019-01-24T04:01:18.941Z,29.70
2019-01-24T04:03:48.906Z,29.60
2019-01-24T04:06:18.926Z,29.60
2019-01-24T04:08:48.915Z,29.70
2019-01-24T04:11:18.866Z,29.60
2019-01-24T04:13:48.863Z,29.60
2019-01-24T04:16:18.950Z,29.60
2019-01-24T04:18:48.959Z,29.60
2019-01-24T04:21:18.918Z,29.50
2019-01-24T04:23:48.881Z,29.60
2019-01-24T04:26:18.882Z,29.60
2019-01-24T04:28:48.859Z,29.60
2019-01-24T04:31:18.908Z,29.50
2019-01-24T04:33:48.926Z,29.50
2019-01-24T04:36:18.885Z,29.50
2019-01-24T04:38:48.842Z,29.50
2019-01-24T04:41:18.801Z,29.50
2019-01-24T04:43:48.786Z,29.50
2019-01-24T04:46:18.750Z,29.60
2019-01-24T04:48:48.726Z,29.40
2019-01-24T04:51:18.729Z,29.40
2019-01-24T04:53:48.798Z,29.50
2019-01-24T04:56:18.757Z,29.40
2019-01-24T04:58:48.742Z,29.40
2019-01-24T05:01:18.700Z,29.30
2019-01-24T05:03:48.726Z,29.30
2019-01-24T05:06:18.685Z,29.40
2019-01-24T05:08:48.720Z,29.40
2019-01-24T05:11:18.717Z,29.30
2019-01-24T05:13:48.747Z,29.40
2019-01-24T05:16:18.781Z,29.40
2019-01-24T05:18:48.730Z,29.70
2019-01-24T05:21:18.700Z,29.70
2019-01-24T05:23:48.692Z,29.60
2019-01-24T05:26:18.677Z,29.50
2019-01-24T05:28:48.627Z,29.50
2019-01-24T05:31:18.663Z,29.60
2019-01-24T05:33:48.644Z,29.50
2019-01-24T05:36:18.616Z,29.40
2019-01-24T05:38:48.608Z,29.60
2019-01-24T05:41:18.565Z,29.50
2019-01-24T05:43:48.529Z,29.40
2019-01-24T05:46:18.486Z,29.40
2019-01-24T05:48:48.462Z,29.40
2019-01-24T05:51:18.426Z,29.40
2019-01-24T05:53:48.397Z,29.40
2019-01-24T05:56:18.386Z,29.30
2019-01-24T05:58:48.422Z,29.40
2019-01-24T06:01:20.470Z,29.30
2019-01-24T06:03:50.641Z,29.30
2019-01-24T06:06:20.630Z,29.20
2019-01-24T06:08:50.590Z,29.30
2019-01-24T06:11:20.582Z,29.30
2019-01-24T06:13:50.537Z,29.20
2019-01-24T06:16:20.502Z,29.30
2019-01-24T06:18:50.484Z,29.30
2019-01-24T06:21:20.558Z,29.20
2019-01-24T06:23:50.533Z,29.20
2019-01-24T06:26:20.502Z,29.20
2019-01-24T06:28:50.537Z,29.20
2019-01-24T06:31:20.508Z,29.20
2019-01-24T06:33:50.490Z,29.10
2019-01-24T06:36:20.437Z,29.00
2019-01-24T06:38:50.399Z,29.20
2019-01-24T06:41:20.356Z,29.10
2019-01-24T06:43:50.314Z,29.30
2019-01-24T06:46:20.282Z,29.30
2019-01-24T06:48:50.289Z,29.70
2019-01-24T06:51:20.256Z,29.90
2019-01-24T06:53:50.202Z,30.00
2019-01-24T06:56:20.257Z,30.30
2019-01-24T06:58:50.213Z,30.20
2019-01-24T07:01:20.197Z,30.10
2019-01-24T07:03:50.167Z,30.20
2019-01-24T07:06:20.219Z,30.30
2019-01-24T07:08:50.172Z,30.10
2019-01-24T07:11:21.105Z,30.00
2019-01-24T07:13:51.114Z,30.10
2019-01-24T07:16:21.091Z,30.00
2019-01-24T07:18:51.038Z,29.90
2019-01-24T07:21:21.026Z,29.90
2019-01-24T07:23:50.985Z,29.80
2019-01-24T07:26:20.941Z,29.90
2019-01-24T07:28:50.901Z,29.90
2019-01-24T07:31:20.866Z,29.70
2019-01-24T07:33:50.825Z,29.80
2019-01-24T07:36:20.810Z,29.70
2019-01-24T07:38:50.790Z,29.60
2019-01-24T07:41:20.758Z,29.60
2019-01-24T07:43:50.714Z,29.60
2019-01-24T07:46:20.679Z,29.60
2019-01-24T07:48:50.633Z,29.50
2019-01-24T07:51:20.593Z,29.50
2019-01-24T07:53:50.589Z,29.50
2019-01-24T07:56:20.541Z,29.50
2019-01-24T07:58:50.509Z,29.40
2019-01-24T08:01:20.482Z,29.50
2019-01-24T08:03:50.454Z,29.40
2019-01-24T08:06:20.506Z,29.40
2019-01-24T08:08:50.462Z,29.40
2019-01-24T08:11:20.431Z,29.40
2019-01-24T08:13:50.395Z,29.40
2019-01-24T08:16:20.350Z,29.40
2019-01-24T08:18:50.301Z,29.40
2019-01-24T08:21:20.262Z,29.20
2019-01-24T08:23:50.264Z,28.90
2019-01-24T08:26:20.222Z,29.00
2019-01-24T08:28:50.186Z,29.40
2019-01-24T08:31:20.190Z,29.30
2019-01-24T08:33:50.207Z,29.40
2019-01-24T08:36:20.307Z,29.70
2019-01-24T08:38:50.271Z,29.80
2019-01-24T08:41:20.235Z,29.90
2019-01-24T08:43:50.194Z,30.00
2019-01-24T08:46:20.174Z,30.10
2019-01-24T08:48:50.126Z,30.10
2019-01-24T08:51:20.096Z,30.10
2019-01-24T08:53:50.085Z,30.30
2019-01-24T08:56:20.029Z,30.10
2019-01-24T08:58:50.037Z,30.00
2019-01-24T09:01:20.061Z,30.00
2019-01-24T09:03:50.011Z,30.00
2019-01-24T09:06:22.659Z,30.00
2019-01-24T09:08:51.615Z,30.10
2019-01-24T09:11:21.678Z,30.20
2019-01-24T09:13:51.734Z,30.90
2019-01-24T09:16:21.677Z,30.70
2019-01-24T09:18:51.625Z,30.70
2019-01-24T09:21:22.554Z,31.20
2019-01-24T09:23:52.518Z,32.20
2019-01-24T09:26:22.484Z,33.00
2019-01-24T09:28:52.469Z,33.10
2019-01-24T09:31:22.427Z,33.50
2019-01-24T09:33:52.395Z,33.40
2019-01-24T09:36:22.360Z,33.30
2019-01-24T09:38:52.334Z,33.10
2019-01-24T09:41:22.397Z,32.90
2019-01-24T09:43:52.443Z,33.10
2019-01-24T09:46:22.408Z,33.20
2019-01-24T09:48:52.367Z,33.10
2019-01-24T09:51:22.329Z,33.00
2019-01-24T09:53:52.300Z,32.90
2019-01-24T09:56:22.296Z,32.60
2019-01-24T09:58:52.293Z,32.40
2019-01-24T10:01:22.269Z,32.60
2019-01-24T10:03:52.277Z,32.70
2019-01-24T10:06:22.316Z,33.10
2019-01-24T10:08:52.272Z,33.40
2019-01-24T10:11:23.637Z,33.50
2019-01-24T10:13:53.719Z,34.20
2019-01-24T10:16:23.774Z,34.30
2019-01-24T10:18:53.754Z,34.90
2019-01-24T10:21:23.715Z,35.60
2019-01-24T10:23:53.795Z,37.10
2019-01-24T10:26:23.949Z,38.40
2019-01-24T10:28:54.056Z,37.90
2019-01-24T10:31:24.179Z,38.70
2019-01-24T10:33:55.278Z,38.50
2019-01-24T10:36:25.245Z,39.00
2019-01-24T10:38:55.464Z,39.20
2019-01-24T10:41:25.422Z,39.50
2019-01-24T10:43:55.384Z,39.60
2019-01-24T10:46:25.354Z,39.50
2019-01-24T10:48:55.348Z,40.30
2019-01-24T10:51:25.386Z,40.60
2019-01-24T10:53:55.350Z,40.00
2019-01-24T10:56:25.309Z,39.80
2019-01-24T10:58:55.333Z,39.50
2019-01-24T11:01:25.309Z,39.00
2019-01-24T11:03:55.262Z,38.60
2019-01-24T11:06:25.294Z,38.50
2019-01-24T11:08:55.253Z,38.40
2019-01-24T11:11:25.209Z,38.60
2019-01-24T11:13:55.200Z,38.90
2019-01-24T11:16:25.206Z,38.70
2019-01-24T11:18:55.192Z,39.30
2019-01-24T11:21:25.066Z,38.40
2019-01-24T11:23:55.009Z,38.20
2019-01-24T11:26:24.867Z,38.10
2019-01-24T11:28:54.747Z,38.10
2019-01-24T11:31:24.680Z,38.00
2019-01-24T11:33:54.639Z,37.80
2019-01-24T11:36:24.545Z,38.10
2019-01-24T11:38:54.557Z,38.10
2019-01-24T11:41:24.423Z,37.90
2019-01-24T11:43:54.360Z,38.60
2019-01-24T11:46:24.213Z,38.80
2019-01-24T11:48:54.148Z,38.90
2019-01-24T11:51:24.010Z,39.00
2019-01-24T11:53:53.962Z,39.70
2019-01-24T11:56:23.973Z,40.10
2019-01-24T11:58:53.777Z,41.50
2019-01-24T12:01:23.718Z,42.60
2019-01-24T12:03:53.649Z,43.40
2019-01-24T12:06:23.554Z,44.40
2019-01-24T12:08:53.487Z,44.70
2019-01-24T12:11:23.420Z,45.80
2019-01-24T12:13:53.486Z,46.60
2019-01-24T12:16:23.433Z,46.80
2019-01-24T12:18:53.315Z,48.50
2019-01-24T12:21:23.243Z,49.40
2019-01-24T12:23:53.232Z,49.00
2019-01-24T12:26:23.178Z,49.20
2019-01-24T12:28:53.252Z,49.30
2019-01-24T12:31:23.231Z,52.00
2019-01-24T12:33:53.170Z,53.10
2019-01-24T12:36:23.047Z,51.50
2019-01-24T12:38:52.974Z,52.60
2019-01-24T12:41:22.914Z,54.00
2019-01-24T12:43:52.780Z,52.60
2019-01-24T12:46:22.651Z,51.70
2019-01-24T12:48:52.506Z,52.30
2019-01-24T12:51:22.383Z,49.00
2019-01-24T12:53:52.261Z,45.00
2019-01-24T12:56:22.121Z,43.90
2019-01-24T12:58:52.154Z,45.50
2019-01-24T13:01:22.094Z,33.80
2019-01-24T13:03:52.435Z,31.80
2019-01-24T13:06:22.388Z,34.30
2019-01-24T13:08:52.313Z,37.50
2019-01-24T13:11:22.250Z,38.60
2019-01-24T13:13:52.192Z,39.50
2019-01-24T13:16:22.158Z,40.40
2019-01-24T13:18:52.178Z,41.00
2019-01-24T13:21:22.089Z,41.10
2019-01-24T13:23:51.878Z,41.40
2019-01-24T13:26:21.822Z,41.50
2019-01-24T13:28:51.806Z,42.50
2019-01-24T13:31:21.675Z,41.50
2019-01-24T13:33:51.554Z,41.80
2019-01-24T13:36:21.558Z,41.70
2019-01-24T13:38:51.471Z,41.80
2019-01-24T13:41:21.343Z,41.70
2019-01-24T13:43:51.298Z,41.50
2019-01-24T13:46:21.289Z,41.40
2019-01-24T13:48:51.138Z,41.30
2019-01-24T13:51:21.002Z,41.10
2019-01-24T13:53:50.845Z,41.10
2019-01-24T13:56:20.712Z,40.90
2019-01-24T13:58:50.633Z,40.70
2019-01-24T14:01:20.488Z,40.20
2019-01-24T14:03:58.164Z,40.20
2019-01-24T14:06:28.114Z,39.60
2019-01-24T14:08:58.033Z,39.30
2019-01-24T14:11:27.903Z,39.10
2019-01-24T14:13:57.894Z,38.90
2019-01-24T14:16:27.766Z,38.80
2019-01-24T14:18:57.617Z,38.80
2019-01-24T14:21:27.569Z,38.60
2019-01-24T14:23:57.418Z,38.90
2019-01-24T14:26:27.350Z,38.60
2019-01-24T14:28:57.329Z,38.30
2019-01-24T14:31:28.273Z,38.40
2019-01-24T14:33:58.294Z,38.50
2019-01-24T14:36:28.218Z,38.50
2019-01-24T14:38:58.068Z,38.50
2019-01-24T14:41:27.970Z,38.10
2019-01-24T14:43:58.801Z,38.10
2019-01-24T14:46:28.850Z,38.10
2019-01-24T14:48:58.790Z,38.10
2019-01-24T14:51:28.658Z,37.80
2019-01-24T14:53:58.523Z,37.70
2019-01-24T14:56:28.454Z,37.60
2019-01-24T14:58:58.326Z,37.50
2019-01-24T15:01:28.420Z,28.30
2019-01-24T15:03:58.353Z,22.30
2019-01-24T15:06:28.289Z,20.80
2019-01-24T15:08:58.158Z,23.30
2019-01-24T15:11:28.044Z,26.40
2019-01-24T15:13:57.914Z,27.80
2019-01-24T15:16:27.774Z,28.40
2019-01-24T15:18:57.633Z,28.70
2019-01-24T15:21:27.570Z,29.10
2019-01-24T15:23:57.527Z,29.40
2019-01-24T15:26:27.386Z,29.50
2019-01-24T15:28:57.377Z,29.70
2019-01-24T15:31:27.305Z,29.90
2019-01-24T15:33:58.450Z,30.00
2019-01-24T15:36:28.514Z,30.10
2019-01-24T15:38:59.405Z,30.20
2019-01-24T15:41:29.386Z,30.60
2019-01-24T15:43:59.310Z,30.70
2019-01-24T15:46:29.266Z,30.80
2019-01-24T15:48:59.126Z,30.90
2019-01-24T15:51:28.942Z,31.10
2019-01-24T15:53:58.889Z,31.40
2019-01-24T15:56:28.745Z,32.20
2019-01-24T15:58:58.635Z,31.50
2019-01-24T16:01:28.491Z,31.70
2019-01-24T16:03:58.445Z,31.60
2019-01-24T16:06:28.387Z,31.80
2019-01-24T16:08:58.335Z,32.00
2019-01-24T16:11:28.222Z,32.00
2019-01-24T16:13:58.095Z,32.60
2019-01-24T16:16:28.033Z,33.10
2019-01-24T16:18:57.982Z,33.10
2019-01-24T16:21:27.906Z,33.40
2019-01-24T16:23:57.817Z,33.40
2019-01-24T16:26:27.696Z,33.80
2019-01-24T16:28:57.687Z,33.70
2019-01-24T16:31:27.661Z,33.70
2019-01-24T16:33:57.621Z,34.70
2019-01-24T16:36:27.593Z,34.20
2019-01-24T16:38:57.521Z,34.30
2019-01-24T16:41:27.638Z,34.10
2019-01-24T16:43:57.578Z,34.20
2019-01-24T16:46:27.446Z,34.10
2019-01-24T16:48:57.334Z,34.20
2019-01-24T16:51:27.358Z,34.10
2019-01-24T16:53:57.324Z,34.10
2019-01-24T16:56:27.272Z,33.90
2019-01-24T16:58:57.178Z,33.90
2019-01-24T17:01:27.113Z,33.80
2019-01-24T17:03:57.164Z,34.00
2019-01-24T17:06:27.030Z,34.70
2019-01-24T17:08:57.030Z,34.20
2019-01-24T17:11:27.027Z,34.20
2019-01-24T17:13:57.135Z,35.40
2019-01-24T17:16:27.029Z,35.30
2019-01-24T17:18:56.979Z,35.30
2019-01-24T17:21:26.937Z,34.90
2019-01-24T17:23:56.954Z,35.40
2019-01-24T17:26:26.933Z,35.00
2019-01-24T17:28:56.904Z,34.80
2019-01-24T17:31:28.246Z,34.90
2019-01-24T17:33:58.401Z,35.30
2019-01-24T17:36:28.398Z,35.40
2019-01-24T17:38:58.366Z,35.60
2019-01-24T17:41:28.375Z,35.30
2019-01-24T17:43:58.273Z,35.30
2019-01-24T17:46:28.225Z,36.30
2019-01-24T17:48:58.284Z,35.80
2019-01-24T17:51:28.390Z,35.70
2019-01-24T17:53:58.370Z,35.40
2019-01-24T17:56:28.314Z,35.10
2019-01-24T17:58:58.249Z,34.20
2019-01-24T18:01:28.269Z,33.40
2019-01-24T18:03:58.226Z,33.60
2019-01-24T18:06:29.255Z,33.70
2019-01-24T18:08:59.349Z,35.00
2019-01-24T18:11:29.316Z,35.70
2019-01-24T18:13:59.241Z,35.10
2019-01-24T18:16:29.198Z,34.90
2019-01-24T18:18:59.175Z,35.20
2019-01-24T18:21:29.115Z,35.30
2019-01-24T18:23:59.086Z,35.20
2019-01-24T18:26:29.175Z,35.40
2019-01-24T18:28:59.164Z,35.30
2019-01-24T18:31:29.026Z,35.50
2019-01-24T18:34:01.324Z,35.60
2019-01-24T18:36:31.450Z,35.50
2019-01-24T18:39:01.337Z,35.60
2019-01-24T18:41:31.202Z,35.50
2019-01-24T18:44:01.085Z,35.80
2019-01-24T18:46:31.045Z,36.30
2019-01-24T18:49:01.017Z,36.00
2019-01-24T18:51:32.226Z,36.70
2019-01-24T18:54:02.174Z,36.50
2019-01-24T18:56:32.189Z,36.40
2019-01-24T18:59:02.346Z,36.30
2019-01-24T19:01:32.321Z,36.10
2019-01-24T19:04:02.269Z,36.00
2019-01-24T19:06:33.191Z,36.20
2019-01-24T19:09:05.919Z,35.90
2019-01-24T19:11:36.190Z,36.00
2019-01-24T19:14:06.196Z,36.20
2019-01-24T19:16:36.330Z,35.90
2019-01-24T19:19:06.290Z,36.30
2019-01-24T19:21:36.330Z,36.20
2019-01-24T19:24:06.303Z,36.20
2019-01-24T19:26:36.295Z,36.20
2019-01-24T19:29:06.290Z,36.60
2019-01-24T19:31:36.249Z,36.00
2019-01-24T19:34:06.123Z,36.20
2019-01-24T19:36:36.132Z,36.10
2019-01-24T19:39:08.689Z,35.80
2019-01-24T19:41:38.844Z,35.70
2019-01-24T19:44:15.453Z,36.10
2019-01-24T19:46:40.571Z,35.80
2019-01-24T19:49:10.708Z,36.30
2019-01-24T19:51:41.013Z,36.10
2019-01-24T19:54:11.018Z,36.20
2019-01-24T19:56:41.001Z,36.00
2019-01-24T19:59:11.313Z,36.00
2019-01-24T20:01:41.265Z,35.90
2019-01-24T20:04:11.278Z,35.90
2019-01-24T20:06:41.205Z,36.00
2019-01-24T20:09:11.117Z,35.90
2019-01-24T20:11:41.101Z,35.70
2019-01-24T20:14:12.044Z,35.90
2019-01-24T20:16:41.987Z,36.60
2019-01-24T20:19:11.922Z,36.80
2019-01-24T20:21:41.843Z,36.30
2019-01-24T20:24:11.788Z,36.60
2019-01-24T20:26:41.772Z,37.00
2019-01-24T20:29:11.949Z,36.90
2019-01-24T20:31:42.047Z,36.80
2019-01-24T20:34:12.065Z,36.70
2019-01-24T20:36:42.151Z,36.40
2019-01-24T20:39:12.110Z,36.50
2019-01-24T20:41:42.058Z,36.20
2019-01-24T20:44:12.093Z,36.30
2019-01-24T20:46:42.070Z,36.20
2019-01-24T20:49:11.962Z,36.30
2019-01-24T20:51:41.932Z,36.30
2019-01-24T20:54:11.878Z,36.30
2019-01-24T20:56:41.730Z,36.70
2019-01-24T20:59:11.692Z,36.10
2019-01-24T21:01:41.556Z,36.40
2019-01-24T21:04:11.731Z,36.30
2019-01-24T21:06:41.655Z,36.20
2019-01-24T21:09:14.893Z,36.20
2019-01-24T21:11:43.285Z,36.10
2019-01-24T21:14:13.174Z,37.00
2019-01-24T21:16:43.130Z,36.20
2019-01-24T21:19:13.081Z,36.00
2019-01-24T21:21:43.059Z,36.00
2019-01-24T21:24:13.013Z,36.00
2019-01-24T21:26:42.894Z,35.90
2019-01-24T21:29:12.875Z,36.00
2019-01-24T21:31:42.784Z,36.20
2019-01-24T21:34:12.700Z,36.20
2019-01-24T21:36:42.742Z,36.30
2019-01-24T21:39:12.725Z,36.20
2019-01-24T21:41:42.772Z,36.30
2019-01-24T21:44:12.727Z,36.10
2019-01-24T21:46:42.739Z,36.00
2019-01-24T21:49:12.729Z,36.40
2019-01-24T21:51:42.754Z,36.10
2019-01-24T21:54:12.695Z,36.00
2019-01-24T21:56:42.870Z,36.70
2019-01-24T21:59:12.805Z,36.30
2019-01-24T22:01:43.147Z,35.70
2019-01-24T22:04:13.012Z,35.30
2019-01-24T22:06:42.886Z,35.20
2019-01-24T22:09:12.771Z,35.40
2019-01-24T22:11:42.713Z,35.30
2019-01-24T22:14:12.703Z,34.90
2019-01-24T22:16:42.678Z,35.00
2019-01-24T22:19:12.685Z,34.60
2019-01-24T22:21:42.568Z,35.20
2019-01-24T22:24:12.531Z,35.80
2019-01-24T22:26:42.455Z,35.70
2019-01-24T22:29:12.324Z,36.90
2019-01-24T22:31:43.148Z,35.10
2019-01-24T22:34:12.990Z,35.80
2019-01-24T22:36:42.890Z,35.70
2019-01-24T22:39:12.824Z,36.40
2019-01-24T22:41:43.045Z,35.30
2019-01-24T22:44:13.009Z,35.50
2019-01-24T22:46:42.942Z,35.50
2019-01-24T22:49:12.804Z,35.20
2019-01-24T22:51:42.742Z,35.30
2019-01-24T22:54:12.769Z,35.00
2019-01-24T22:56:42.697Z,34.90
2019-01-24T22:59:12.684Z,34.70
2019-01-24T23:01:56.049Z,34.70
2019-01-24T23:04:26.373Z,34.70
2019-01-24T23:06:56.397Z,34.70
2019-01-24T23:09:26.370Z,34.60
2019-01-24T23:11:56.316Z,34.50
2019-01-24T23:14:26.325Z,34.50
2019-01-24T23:16:56.282Z,34.50
2019-01-24T23:19:26.186Z,34.30
2019-01-24T23:21:55.966Z,34.30
2019-01-24T23:24:25.818Z,34.40
2019-01-24T23:26:55.874Z,34.20
2019-01-24T23:29:25.763Z,34.20
2019-01-24T23:31:55.910Z,34.40
2019-01-24T23:34:25.906Z,34.40
2019-01-24T23:36:56.878Z,34.20
2019-01-24T23:39:26.820Z,34.10
2019-01-24T23:41:56.968Z,34.40
2019-01-24T23:44:26.979Z,34.70
2019-01-24T23:46:56.874Z,34.50
2019-01-24T23:49:26.654Z,35.00
2019-01-24T23:51:56.533Z,34.90
2019-01-24T23:54:26.390Z,35.40
2019-01-24T23:56:56.765Z,34.80
2019-01-24T23:59:28.749Z,34.60
